Ben-my-chree — MXLG6 — position and weather

sailwx.info

Track history (hours):
 
Tides and Currents Weather Stations Pressure Air Temp Water Temp Dewpoint Dewpoint Depression Visibility Wind Speed Wind Dir Waves Ship Positions

Ben-my-chree

Operator: The Isle of Man Steam Packet Co Ltd

Last reported at 2018-Oct-20 10:02 UTC. Time now 2018-Oct-20 12:29 UTC.
Position N 53°55' W 003°17'.

Length 120 m; draft 5.1 m.

Type: Passenger vessel. MMSI: 234983000.

Date/timePositionNaut miles runAvg speedWind from/ knotsBaromVisibWave heightAir tempDewpointWater temp
2018-Oct-20 10:02N 53°55' W 003°17'117.5
2018-Oct-20 10:00N 53°55' W 003°18'41 7.2
2018-Oct-20 04:19N 54°09' W 004°24'1317.5
2018-Oct-20 03:34N 54°03' W 004°03'617.6
2018-Oct-20 03:13N 54°01' W 003°54'2017.4
2018-Oct-20 02:04N 53°56' W 003°21'20 1.8
2018-Oct-19 15:17N 54°01' W 003°53'1 0.1
2018-Oct-19 03:20N 54°01' W 003°55'20 3.2
2018-Oct-18 21:04N 53°56' W 003°23'37 7.5
2018-Oct-18 16:10N 54°08' W 004°21'318.1
2018-Oct-18 15:59N 54°07' W 004°16'918.1
2018-Oct-18 15:28N 54°03' W 004°02'27 5.2
2018-Oct-18 10:11N 53°55' W 003°17'517.8
2018-Oct-18 09:53N 53°56' W 003°26'37 6.9
2018-Oct-18 04:28N 54°09' W 004°25'2017.4
2018-Oct-18 03:21N 54°01' W 003°54'14 1.3
2018-Oct-17 16:17N 54°07' W 004°16'37 6.2
2018-Oct-17 10:18N 53°55' W 003°16'37 6.1
2018-Oct-17 04:14N 54°07' W 004°16'817.1
2018-Oct-17 03:46N 54°04' W 004°04'517.0
2018-Oct-17 03:27N 54°02' W 003°56'5 0.4
2018-Oct-16 15:40N 54°04' W 004°03'517.0
2018-Oct-16 15:23N 54°02' W 003°56'23 4.5
2018-Oct-16 10:12N 53°55' W 003°17'517.7
2018-Oct-16 09:54N 53°56' W 003°26'34 5.9
2018-Oct-16 04:09N 54°08' W 004°21'418.3
2018-Oct-16 03:57N 54°06' W 004°15'818.3
2018-Oct-16 03:30N 54°03' W 004°02'1518.0
2018-Oct-16 02:42N 53°58' W 003°39'9 1.6
2018-Oct-15 21:04N 53°55' W 003°24'19 3.4
2018-Oct-15 15:25N 54°01' W 003°55'18 3.2
2018-Oct-15 09:51N 53°55' W 003°26'23 3.6
2018-Oct-15 03:31N 54°03' W 004°02'2118.2
2018-Oct-15 02:22N 53°56' W 003°29'1017.8
2018-Oct-15 01:49N 53°56' W 003°13'516.7
2018-Oct-15 01:30N 53°58' W 003°04'714.5
2018-Oct-15 01:02N 54°02' W 002°55'0 0.0
2018-Oct-14 22:01N 54°02' W 002°55'0 7.6
2018-Oct-14 22:00N 54°02' W 002°55'816.1
2018-Oct-14 21:29N 53°57' W 003°07'817.7
2018-Oct-14 21:03N 53°55' W 003°19'118.0
2018-Oct-14 21:00N 53°55' W 003°21'917.6
2018-Oct-14 20:30N 53°57' W 003°36'12 2.3
2018-Oct-14 15:18N 54°01' W 003°54'2617.7
2018-Oct-14 13:51N 53°56' W 003°11'716.6
2018-Oct-14 13:27N 53°59' W 003°01'5 1.9
2018-Oct-14 10:55N 54°02' W 002°55'716.6
2018-Oct-14 10:30N 53°58' W 003°04'818.5
2018-Oct-14 10:03N 53°55' W 003°18'119.0
2018-Oct-14 10:00N 53°55' W 003°19'918.1
2018-Oct-14 09:30N 53°57' W 003°34'818.0
2018-Oct-14 09:03N 53°60' W 003°47'117.8
2018-Oct-14 08:59N 53°60' W 003°49'24 5.2
2018-Oct-14 04:25N 54°09' W 004°27'717.8
2018-Oct-14 04:00N 54°06' W 004°15'1417.9
2018-Oct-14 03:14N 54°01' W 003°53'1617.6
2018-Oct-14 02:20N 53°56' W 003°28'1017.4
2018-Oct-14 01:46N 53°56' W 003°11'516.5
2018-Oct-14 01:29N 53°58' W 003°04'7 2.1
2018-Oct-13 22:19N 54°02' W 002°55'414.9
2018-Oct-13 22:03N 53°59' W 003°00'219.7
2018-Oct-13 21:56N 53°58' W 003°03'818.8
2018-Oct-13 21:30N 53°55' W 003°16'818.3
2018-Oct-13 21:03N 53°56' W 003°30'117.6
2018-Oct-13 21:00N 53°56' W 003°32'917.5
2018-Oct-13 20:30N 53°60' W 003°45'6 1.1
2018-Oct-13 15:20N 54°01' W 003°54'2518.1
2018-Oct-13 13:57N 53°56' W 003°13'816.9
2018-Oct-13 13:30N 53°59' W 003°01'5 1.8
2018-Oct-13 10:52N 54°02' W 002°55'717.9
2018-Oct-13 10:30N 53°58' W 003°04'919.3
2018-Oct-13 10:03N 53°55' W 003°18'119.1
2018-Oct-13 10:00N 53°55' W 003°20'918.4
2018-Oct-13 09:30N 53°57' W 003°35'918.3
2018-Oct-13 09:02N 53°60' W 003°48'118.4
2018-Oct-13 09:00N 54°00' W 003°50'14 2.2
2018-Oct-13 02:20N 53°55' W 003°27'517.8
2018-Oct-13 02:03N 53°55' W 003°18'118.0
2018-Oct-13 02:00N 53°55' W 003°17'918.0
2018-Oct-13 01:30N 53°58' W 003°02'6 1.6
2018-Oct-12 22:01N 54°02' W 002°55'314.4
2018-Oct-12 21:49N 53°60' W 002°59'517.5
2018-Oct-12 21:30N 53°57' W 003°07'716.3
2018-Oct-12 21:03N 53°56' W 003°19'118.9
2018-Oct-12 21:00N 53°56' W 003°20'918.4
2018-Oct-12 20:30N 53°57' W 003°36'818.1
2018-Oct-12 20:03N 54°00' W 003°49'118.0
2018-Oct-12 20:00N 54°00' W 003°50'22 6.1
2018-Oct-12 16:26N 54°09' W 004°24'2017.1
2018-Oct-12 15:17N 54°01' W 003°54'1617.8
2018-Oct-12 14:24N 53°55' W 003°29'818.1
2018-Oct-12 13:57N 53°56' W 003°15'817.4
2018-Oct-12 13:30N 53°58' W 003°03'6 2.5
2018-Oct-12 11:11N 54°02' W 002°55'617.5
2018-Oct-12 10:52N 53°58' W 003°02'719.8
2018-Oct-12 10:30N 53°55' W 003°14'818.1
2018-Oct-12 10:03N 53°56' W 003°28'118.1
2018-Oct-12 10:00N 53°56' W 003°29'917.3
2018-Oct-12 09:30N 53°59' W 003°43'9 0.5
2018-Oct-11 14:16N 53°56' W 003°29'919.5
2018-Oct-11 13:47N 53°56' W 003°13'519.2
2018-Oct-11 13:30N 53°58' W 003°04'7 2.6
2018-Oct-11 10:51N 54°02' W 002°55'617.4
2018-Oct-11 10:30N 53°58' W 003°03'919.8
2018-Oct-11 10:03N 53°56' W 003°17'119.4
2018-Oct-11 10:00N 53°56' W 003°19'918.7
2018-Oct-11 09:30N 53°57' W 003°35'1018.4
2018-Oct-11 08:57N 54°01' W 003°51'14 2.1
2018-Oct-11 02:15N 53°56' W 003°28'919.8
2018-Oct-11 01:47N 53°56' W 003°13'619.9
2018-Oct-11 01:30N 53°58' W 003°04'7 1.9
2018-Oct-10 21:55N 54°02' W 002°55'715.8
2018-Oct-10 21:30N 53°58' W 003°04'919.8
2018-Oct-10 21:03N 53°56' W 003°18'119.7
2018-Oct-10 21:00N 53°56' W 003°20'918.5
2018-Oct-10 20:30N 53°57' W 003°35'918.5
2018-Oct-10 20:01N 54°00' W 003°50'019.1
2018-Oct-10 20:00N 54°00' W 003°50'16 2.6
2018-Oct-10 14:03N 53°56' W 003°25'720.4
2018-Oct-10 13:42N 53°56' W 003°12'420.0
2018-Oct-10 13:30N 53°57' W 003°06'8 3.0
2018-Oct-10 10:54N 54°02' W 002°55'716.2
2018-Oct-10 10:28N 53°57' W 003°04'819.7
2018-Oct-10 10:03N 53°56' W 003°18'  
Track history (hours):
 
Tides and Currents Weather Stations Pressure Air Temp Water Temp Dewpoint Dewpoint Depression Visibility Wind Speed Wind Dir Waves Ship Positions

Ben-my-chree

Operator: The Isle of Man Steam Packet Co Ltd

Last reported at 2018-Oct-20 10:02 UTC. Time now 2018-Oct-20 12:29 UTC.
Position N 53°55' W 003°17'.

Length 120 m; draft 5.1 m.

Type: Passenger vessel. MMSI: 234983000.

Date/timePositionNaut miles runAvg speedWind from/ knotsBaromVisibWave heightAir tempDewpointWater temp
2018-Oct-20 10:02N 53°55' W 003°17'117.5
2018-Oct-20 10:00N 53°55' W 003°18'41 7.2
2018-Oct-20 04:19N 54°09' W 004°24'1317.5
2018-Oct-20 03:34N 54°03' W 004°03'617.6
2018-Oct-20 03:13N 54°01' W 003°54'2017.4
2018-Oct-20 02:04N 53°56' W 003°21'20 1.8
2018-Oct-19 15:17N 54°01' W 003°53'1 0.1
2018-Oct-19 03:20N 54°01' W 003°55'20 3.2
2018-Oct-18 21:04N 53°56' W 003°23'37 7.5
2018-Oct-18 16:10N 54°08' W 004°21'318.1
2018-Oct-18 15:59N 54°07' W 004°16'918.1
2018-Oct-18 15:28N 54°03' W 004°02'27 5.2
2018-Oct-18 10:11N 53°55' W 003°17'517.8
2018-Oct-18 09:53N 53°56' W 003°26'37 6.9
2018-Oct-18 04:28N 54°09' W 004°25'2017.4
2018-Oct-18 03:21N 54°01' W 003°54'14 1.3
2018-Oct-17 16:17N 54°07' W 004°16'37 6.2
2018-Oct-17 10:18N 53°55' W 003°16'37 6.1
2018-Oct-17 04:14N 54°07' W 004°16'817.1
2018-Oct-17 03:46N 54°04' W 004°04'517.0
2018-Oct-17 03:27N 54°02' W 003°56'5 0.4
2018-Oct-16 15:40N 54°04' W 004°03'517.0
2018-Oct-16 15:23N 54°02' W 003°56'23 4.5
2018-Oct-16 10:12N 53°55' W 003°17'517.7
2018-Oct-16 09:54N 53°56' W 003°26'34 5.9
2018-Oct-16 04:09N 54°08' W 004°21'418.3
2018-Oct-16 03:57N 54°06' W 004°15'818.3
2018-Oct-16 03:30N 54°03' W 004°02'1518.0
2018-Oct-16 02:42N 53°58' W 003°39'9 1.6
2018-Oct-15 21:04N 53°55' W 003°24'19 3.4
2018-Oct-15 15:25N 54°01' W 003°55'18 3.2
2018-Oct-15 09:51N 53°55' W 003°26'23 3.6
2018-Oct-15 03:31N 54°03' W 004°02'2118.2
2018-Oct-15 02:22N 53°56' W 003°29'1017.8
2018-Oct-15 01:49N 53°56' W 003°13'516.7
2018-Oct-15 01:30N 53°58' W 003°04'714.5
2018-Oct-15 01:02N 54°02' W 002°55'0 0.0
2018-Oct-14 22:01N 54°02' W 002°55'0 7.6
2018-Oct-14 22:00N 54°02' W 002°55'816.1
2018-Oct-14 21:29N 53°57' W 003°07'817.7
2018-Oct-14 21:03N 53°55' W 003°19'118.0
2018-Oct-14 21:00N 53°55' W 003°21'917.6
2018-Oct-14 20:30N 53°57' W 003°36'12 2.3
2018-Oct-14 15:18N 54°01' W 003°54'2617.7
2018-Oct-14 13:51N 53°56' W 003°11'716.6
2018-Oct-14 13:27N 53°59' W 003°01'5 1.9
2018-Oct-14 10:55N 54°02' W 002°55'716.6
2018-Oct-14 10:30N 53°58' W 003°04'818.5
2018-Oct-14 10:03N 53°55' W 003°18'119.0
2018-Oct-14 10:00N 53°55' W 003°19'918.1
2018-Oct-14 09:30N 53°57' W 003°34'818.0
2018-Oct-14 09:03N 53°60' W 003°47'117.8
2018-Oct-14 08:59N 53°60' W 003°49'24 5.2
2018-Oct-14 04:25N 54°09' W 004°27'717.8
2018-Oct-14 04:00N 54°06' W 004°15'1417.9
2018-Oct-14 03:14N 54°01' W 003°53'1617.6
2018-Oct-14 02:20N 53°56' W 003°28'1017.4
2018-Oct-14 01:46N 53°56' W 003°11'516.5
2018-Oct-14 01:29N 53°58' W 003°04'7 2.1
2018-Oct-13 22:19N 54°02' W 002°55'414.9
2018-Oct-13 22:03N 53°59' W 003°00'219.7
2018-Oct-13 21:56N 53°58' W 003°03'818.8
2018-Oct-13 21:30N 53°55' W 003°16'818.3
2018-Oct-13 21:03N 53°56' W 003°30'117.6
2018-Oct-13 21:00N 53°56' W 003°32'917.5
2018-Oct-13 20:30N 53°60' W 003°45'6 1.1
2018-Oct-13 15:20N 54°01' W 003°54'2518.1
2018-Oct-13 13:57N 53°56' W 003°13'816.9
2018-Oct-13 13:30N 53°59' W 003°01'5 1.8
2018-Oct-13 10:52N 54°02' W 002°55'717.9
2018-Oct-13 10:30N 53°58' W 003°04'919.3
2018-Oct-13 10:03N 53°55' W 003°18'119.1
2018-Oct-13 10:00N 53°55' W 003°20'918.4
2018-Oct-13 09:30N 53°57' W 003°35'918.3
2018-Oct-13 09:02N 53°60' W 003°48'118.4
2018-Oct-13 09:00N 54°00' W 003°50'14 2.2
2018-Oct-13 02:20N 53°55' W 003°27'517.8
2018-Oct-13 02:03N 53°55' W 003°18'118.0
2018-Oct-13 02:00N 53°55' W 003°17'918.0
2018-Oct-13 01:30N 53°58' W 003°02'6 1.6
2018-Oct-12 22:01N 54°02' W 002°55'314.4
2018-Oct-12 21:49N 53°60' W 002°59'517.5
2018-Oct-12 21:30N 53°57' W 003°07'716.3
2018-Oct-12 21:03N 53°56' W 003°19'118.9
2018-Oct-12 21:00N 53°56' W 003°20'918.4
2018-Oct-12 20:30N 53°57' W 003°36'818.1
2018-Oct-12 20:03N 54°00' W 003°49'118.0
2018-Oct-12 20:00N 54°00' W 003°50'22 6.1
2018-Oct-12 16:26N 54°09' W 004°24'2017.1
2018-Oct-12 15:17N 54°01' W 003°54'1617.8
2018-Oct-12 14:24N 53°55' W 003°29'818.1
2018-Oct-12 13:57N 53°56' W 003°15'817.4
2018-Oct-12 13:30N 53°58' W 003°03'6 2.5
2018-Oct-12 11:11N 54°02' W 002°55'617.5
2018-Oct-12 10:52N 53°58' W 003°02'719.8
2018-Oct-12 10:30N 53°55' W 003°14'818.1
2018-Oct-12 10:03N 53°56' W 003°28'118.1
2018-Oct-12 10:00N 53°56' W 003°29'917.3
2018-Oct-12 09:30N 53°59' W 003°43'9 0.5
2018-Oct-11 14:16N 53°56' W 003°29'919.5
2018-Oct-11 13:47N 53°56' W 003°13'519.2
2018-Oct-11 13:30N 53°58' W 003°04'7 2.6
2018-Oct-11 10:51N 54°02' W 002°55'617.4
2018-Oct-11 10:30N 53°58' W 003°03'919.8
2018-Oct-11 10:03N 53°56' W 003°17'119.4
2018-Oct-11 10:00N 53°56' W 003°19'918.7
2018-Oct-11 09:30N 53°57' W 003°35'1018.4
2018-Oct-11 08:57N 54°01' W 003°51'14 2.1
2018-Oct-11 02:15N 53°56' W 003°28'919.8
2018-Oct-11 01:47N 53°56' W 003°13'619.9
2018-Oct-11 01:30N 53°58' W 003°04'7 1.9
2018-Oct-10 21:55N 54°02' W 002°55'715.8
2018-Oct-10 21:30N 53°58' W 003°04'919.8
2018-Oct-10 21:03N 53°56' W 003°18'119.7
2018-Oct-10 21:00N 53°56' W 003°20'918.5
2018-Oct-10 20:30N 53°57' W 003°35'918.5
2018-Oct-10 20:01N 54°00' W 003°50'019.1
2018-Oct-10 20:00N 54°00' W 003°50'16 2.6
2018-Oct-10 14:03N 53°56' W 003°25'720.4
2018-Oct-10 13:42N 53°56' W 003°12'420.0
2018-Oct-10 13:30N 53°57' W 003°06'8 3.0
2018-Oct-10 10:54N 54°02' W 002°55'716.2
2018-Oct-10 10:28N 53°57' W 003°04'819.7
2018-Oct-10 10:03N 53°56' W 003°18'  

Dump ship's entire track history